Time;durP1;ratioP1;P1;durP2;ratioP2;P2;SDS_P1;SDS_P2;PMS_P1;PMS_P2;Temp;Humidity;BMP_temperature;BMP_pressure;BME280_temperature;BME280_humidity;BME280_pressure;Samples;Min_cycle;Max_cycle;Signal;HPM_P1;HPM_P2
2021/12/25 00:00:10;;;;;;;6.53;1.70;;;0.40;99.90;;;;;;4940069;29;20130;-92
2021/12/25 00:02:35;;;;;;;5.40;1.87;;;0.30;99.90;;;;;;4925973;29;20035;-95
2021/12/25 00:05:03;;;;;;;7.70;2.08;;;0.30;99.90;;;;;;4946655;29;20339;-90
2021/12/25 00:07:29;;;;;;;7.38;1.80;;;0.20;99.90;;;;;;4943771;29;20065;-95
2021/12/25 00:09:54;;;;;;;7.05;1.52;;;0.20;99.90;;;;;;4929632;29;20051;-94
2021/12/25 00:12:20;;;;;;;4.57;1.60;;;0.20;99.90;;;;;;4953928;29;20105;-93
2021/12/25 00:14:46;;;;;;;7.18;2.35;;;0.20;99.90;;;;;;4942662;29;20058;-93
2021/12/25 00:17:11;;;;;;;5.72;1.65;;;0.30;99.90;;;;;;4926971;29;20496;-95
2021/12/25 00:19:37;;;;;;;7.57;1.90;;;0.30;99.90;;;;;;4922169;29;20035;-92
2021/12/25 00:22:02;;;;;;;4.50;1.50;;;0.30;99.90;;;;;;4925104;29;20067;-93
2021/12/25 00:24:28;;;;;;;9.10;1.80;;;0.20;99.90;;;;;;4937798;29;20130;-93
2021/12/25 00:27:10;;;;;;;6.35;1.90;;;0.30;99.90;;;;;;4936978;29;20066;-90
2021/12/25 00:29:54;;;;;;;8.15;1.92;;;0.20;99.90;;;;;;4936368;29;20052;-91
2021/12/25 00:34:46;;;;;;;5.68;1.60;;;0.10;99.90;;;;;;4933318;29;20533;-93
2021/12/25 00:37:11;;;;;;;6.13;1.55;;;0.10;99.90;;;;;;4909513;29;20086;-91
2021/12/25 00:39:37;;;;;;;5.53;1.60;;;0.10;99.90;;;;;;4936624;28;20086;-95
2021/12/25 00:42:05;;;;;;;6.25;2.50;;;0.00;99.90;;;;;;4935995;29;20039;-93
2021/12/25 00:44:32;;;;;;;5.60;1.70;;;0.00;99.90;;;;;;4933330;29;20055;-90
2021/12/25 00:46:58;;;;;;;7.70;1.83;;;0.10;99.90;;;;;;4901941;29;20040;-94
2021/12/25 00:49:24;;;;;;;5.97;1.55;;;0.10;99.90;;;;;;4931769;29;20492;-91
2021/12/25 00:51:50;;;;;;;7.45;1.40;;;0.10;99.90;;;;;;4936529;29;20075;-96
2021/12/25 00:54:16;;;;;;;5.78;1.48;;;0.10;99.90;;;;;;4936778;29;20408;-92
2021/12/25 00:56:42;;;;;;;5.80;1.40;;;0.10;99.90;;;;;;4919965;29;20080;-93
2021/12/25 00:59:08;;;;;;;3.53;1.10;;;0.00;99.90;;;;;;4936393;29;20114;-91
2021/12/25 01:01:34;;;;;;;6.55;1.40;;;0.00;99.90;;;;;;4919551;29;20055;-94
2021/12/25 01:03:59;;;;;;;7.55;1.42;;;0.00;99.90;;;;;;4921010;28;20579;-91
2021/12/25 01:06:25;;;;;;;4.53;1.10;;;-0.10;99.90;;;;;;4935616;29;20043;-94
2021/12/25 01:08:51;;;;;;;3.17;1.00;;;-0.10;99.90;;;;;;4936150;29;20046;-93
2021/12/25 01:11:16;;;;;;;2.78;1.00;;;-0.20;99.90;;;;;;4919430;29;20054;-90
2021/12/25 01:13:49;;;;;;;4.53;1.40;;;-0.20;99.90;;;;;;4934667;29;20110;-90
2021/12/25 01:37:37;;;;;;;8.40;1.80;;;-0.70;99.90;;;;;;4935391;29;20461;-90
2021/12/25 01:48:13;;;;;;;3.65;0.90;;;-0.80;99.90;;;;;;4921157;29;20051;-93
2021/12/25 01:50:38;;;;;;;4.97;1.02;;;-0.80;99.90;;;;;;4927249;29;20052;-91
2021/12/25 01:53:04;;;;;;;2.88;1.40;;;-0.90;99.90;;;;;;4907854;29;20039;-89
2021/12/25 01:55:30;;;;;;;4.85;1.60;;;-0.90;99.90;;;;;;4922632;29;20437;-93
2021/12/25 01:57:58;;;;;;;5.90;1.00;;;-0.90;99.90;;;;;;4923057;29;20057;-93
2021/12/25 02:00:36;;;;;;;6.38;0.93;;;-1.00;99.90;;;;;;4939238;29;20373;-92
2021/12/25 02:03:04;;;;;;;5.15;1.02;;;-0.90;99.90;;;;;;4923227;29;20051;-95
2021/12/25 02:05:30;;;;;;;3.20;1.00;;;-1.00;99.90;;;;;;4938445;29;20049;-90
2021/12/25 02:07:56;;;;;;;4.65;1.00;;;-1.00;99.90;;;;;;4939255;29;20051;-94
2021/12/25 02:10:21;;;;;;;6.35;1.25;;;-1.00;99.90;;;;;;4938016;29;20035;-92
2021/12/25 02:12:48;;;;;;;3.83;1.08;;;-1.00;99.90;;;;;;4941785;29;20089;-90
2021/12/25 02:15:18;;;;;;;4.30;1.13;;;-1.10;99.90;;;;;;4939621;29;20075;-89
2021/12/25 02:20:17;;;;;;;8.15;1.20;;;-1.10;99.90;;;;;;4938751;29;20043;-89
2021/12/25 02:22:42;;;;;;;3.83;0.93;;;-1.20;99.90;;;;;;4937549;29;20182;-89
2021/12/25 02:25:08;;;;;;;4.75;1.02;;;-1.20;99.90;;;;;;4922733;29;20122;-90
2021/12/25 02:27:34;;;;;;;4.45;1.13;;;-1.20;99.90;;;;;;4938127;29;20047;-93
2021/12/25 02:29:59;;;;;;;5.05;1.08;;;-1.30;99.90;;;;;;4922879;29;20036;-91
2021/12/25 02:32:25;;;;;;;4.32;1.35;;;-1.30;99.90;;;;;;4934666;29;20044;-90
2021/12/25 02:34:50;;;;;;;2.83;0.90;;;-1.30;99.90;;;;;;4911181;29;20418;-90
2021/12/25 02:37:16;;;;;;;5.13;1.60;;;-1.30;99.90;;;;;;4922482;29;20039;-94
2021/12/25 02:39:42;;;;;;;4.53;1.00;;;-1.30;99.90;;;;;;4921946;29;20552;-91
2021/12/25 02:42:08;;;;;;;5.05;0.98;;;-1.30;99.90;;;;;;4922343;29;20087;-91
2021/12/25 02:44:34;;;;;;;2.85;1.08;;;-1.40;99.90;;;;;;4921881;29;20074;-92
2021/12/25 02:47:09;;;;;;;4.82;1.13;;;-1.40;99.90;;;;;;4937915;29;20057;-91
2021/12/25 02:49:35;;;;;;;3.35;1.10;;;-1.40;99.90;;;;;;4937393;29;20047;-89
2021/12/25 02:52:00;;;;;;;4.10;1.17;;;-1.50;99.90;;;;;;4921942;29;20484;-90
2021/12/25 02:54:26;;;;;;;6.38;1.27;;;-1.50;99.90;;;;;;4920766;29;20099;-94
2021/12/25 02:56:52;;;;;;;4.05;1.00;;;-1.50;99.90;;;;;;4921386;29;20043;-89
2021/12/25 02:59:17;;;;;;;4.90;0.93;;;-1.50;99.90;;;;;;4936125;29;20047;-92
2021/12/25 03:01:43;;;;;;;5.60;1.23;;;-1.50;99.90;;;;;;4933198;29;20521;-90
2021/12/25 03:04:09;;;;;;;4.50;1.23;;;-1.50;99.90;;;;;;4919344;29;20414;-90
2021/12/25 03:06:36;;;;;;;3.35;1.08;;;-1.60;99.90;;;;;;4920075;29;20400;-92
2021/12/25 03:09:04;;;;;;;5.13;1.30;;;-1.60;99.90;;;;;;4936899;29;20044;-91
2021/12/25 03:11:30;;;;;;;3.58;1.20;;;-1.60;99.90;;;;;;4920579;29;20046;-89
2021/12/25 03:14:10;;;;;;;3.70;1.83;;;-1.70;99.90;;;;;;4921851;29;20416;-91
2021/12/25 03:16:36;;;;;;;2.57;0.97;;;-1.70;99.90;;;;;;4936445;29;20520;-92
2021/12/25 03:19:04;;;;;;;2.80;1.00;;;-1.70;99.90;;;;;;4930003;29;20160;-89
2021/12/25 03:21:29;;;;;;;2.45;0.80;;;-1.80;99.90;;;;;;4917939;29;20039;-90
2021/12/25 03:23:55;;;;;;;1.92;0.88;;;-1.80;99.90;;;;;;4937240;29;20054;-89
2021/12/25 03:26:20;;;;;;;4.63;1.15;;;-1.80;99.90;;;;;;4937266;29;20047;-91
2021/12/25 03:28:49;;;;;;;3.13;1.05;;;-1.90;99.90;;;;;;4936823;29;20149;-90
2021/12/25 03:31:18;;;;;;;5.50;1.10;;;-1.90;99.90;;;;;;4942313;29;20047;-93
2021/12/25 03:33:55;;;;;;;5.57;0.93;;;-1.90;99.90;;;;;;4949454;29;20338;-91
2021/12/25 03:36:22;;;;;;;2.80;1.15;;;-2.00;99.90;;;;;;4935879;29;20035;-93
2021/12/25 03:38:48;;;;;;;4.35;0.98;;;-2.00;99.90;;;;;;4921649;29;20057;-92
2021/12/25 03:41:18;;;;;;;3.38;0.88;;;-2.00;99.90;;;;;;4917465;29;20050;-91
2021/12/25 03:43:44;;;;;;;3.08;0.80;;;-2.10;99.90;;;;;;4911760;29;20062;-93
2021/12/25 03:46:12;;;;;;;2.83;0.77;;;-2.00;99.90;;;;;;4936980;29;20105;-93
2021/12/25 03:59:06;;;;;;;2.28;1.02;;;-2.20;99.90;;;;;;4918009;29;20124;-93
2021/12/25 04:04:17;;;;;;;2.50;0.98;;;-2.20;99.90;;;;;;4935953;29;20213;-93
2021/12/25 04:06:50;;;;;;;2.55;0.70;;;-2.30;99.90;;;;;;4936709;29;20163;-88
2021/12/25 04:09:25;;;;;;;3.88;1.10;;;-2.30;99.90;;;;;;4937372;29;20054;-93
2021/12/25 04:11:51;;;;;;;2.83;0.70;;;-2.30;99.90;;;;;;4932796;29;20047;-89
2021/12/25 04:14:17;;;;;;;3.28;1.00;;;-2.30;99.90;;;;;;4902230;29;20052;-89
2021/12/25 04:16:43;;;;;;;2.90;1.27;;;-2.40;99.90;;;;;;4925657;29;20070;-89
2021/12/25 04:19:08;;;;;;;3.40;0.80;;;-2.40;99.90;;;;;;4932958;29;20556;-88
2021/12/25 04:21:35;;;;;;;2.88;0.88;;;-2.40;99.90;;;;;;4918891;29;20047;-92
2021/12/25 04:24:01;;;;;;;4.40;1.02;;;-2.40;99.90;;;;;;4920898;29;20083;-93
2021/12/25 04:26:27;;;;;;;2.30;0.88;;;-2.40;99.90;;;;;;4936178;29;20070;-92
2021/12/25 04:31:32;;;;;;;3.30;0.80;;;-2.50;99.90;;;;;;4946028;29;20133;-90
2021/12/25 05:04:01;;;;;;;3.10;0.80;;;-2.70;99.90;;;;;;4936244;29;20062;-91
2021/12/25 05:06:27;;;;;;;2.67;0.80;;;-2.70;99.90;;;;;;4935092;29;20047;-88
2021/12/25 05:08:54;;;;;;;3.58;0.80;;;-2.70;99.90;;;;;;4933023;29;20062;-90
2021/12/25 05:11:19;;;;;;;3.20;0.95;;;-2.70;99.90;;;;;;4917635;29;20040;-94
2021/12/25 05:13:48;;;;;;;2.17;0.95;;;-2.80;99.90;;;;;;4906058;29;20484;-91
2021/12/25 05:16:14;;;;;;;2.50;0.80;;;-2.80;99.90;;;;;;4920130;29;20103;-88
2021/12/25 05:18:39;;;;;;;2.28;0.90;;;-2.80;99.90;;;;;;4919492;29;20043;-93
2021/12/25 05:21:07;;;;;;;2.60;0.80;;;-2.80;99.90;;;;;;4919998;29;20122;-93
2021/12/25 05:23:32;;;;;;;3.22;0.88;;;-2.90;99.90;;;;;;4918466;29;20047;-89
2021/12/25 05:25:58;;;;;;;2.42;0.93;;;-2.90;99.90;;;;;;4934853;28;20110;-93
2021/12/25 05:28:26;;;;;;;1.75;0.90;;;-2.90;99.90;;;;;;4934421;29;20130;-91
2021/12/25 05:30:53;;;;;;;2.78;0.88;;;-2.90;99.90;;;;;;4934483;29;20115;-90
2021/12/25 05:33:19;;;;;;;3.15;0.80;;;-2.90;99.90;;;;;;4920468;29;20048;-91
2021/12/25 05:35:45;;;;;;;1.55;0.80;;;-2.90;99.90;;;;;;4919029;29;20074;-90
2021/12/25 05:38:14;;;;;;;2.88;0.82;;;-2.90;99.90;;;;;;4919642;29;20051;-89
2021/12/25 05:40:43;;;;;;;2.15;0.85;;;-2.90;99.90;;;;;;4931726;29;20043;-90
2021/12/25 05:43:12;;;;;;;3.20;0.98;;;-3.00;99.90;;;;;;4916451;29;20097;-95
2021/12/25 05:45:38;;;;;;;2.00;0.80;;;-3.00;99.90;;;;;;4906904;29;20054;-92
2021/12/25 05:48:04;;;;;;;2.30;0.98;;;-3.00;99.90;;;;;;4937913;29;20039;-92
2021/12/25 05:50:30;;;;;;;1.55;0.93;;;-3.00;99.90;;;;;;4936934;29;20051;-93
2021/12/25 05:52:56;;;;;;;4.20;1.10;;;-3.00;99.90;;;;;;4927355;29;20073;-95
2021/12/25 05:55:23;;;;;;;2.92;1.10;;;-3.00;99.90;;;;;;4922233;29;20103;-90
2021/12/25 05:57:49;;;;;;;3.08;0.90;;;-3.00;99.90;;;;;;4938813;29;20044;-95
2021/12/25 06:00:15;;;;;;;3.38;1.23;;;-3.10;99.90;;;;;;4923525;29;20075;-95
2021/12/25 06:02:42;;;;;;;2.33;0.93;;;-3.10;99.90;;;;;;4920809;29;20381;-92
2021/12/25 06:05:07;;;;;;;2.72;1.10;;;-3.10;99.90;;;;;;4920360;29;20106;-94
2021/12/25 06:07:33;;;;;;;2.85;0.82;;;-3.10;99.90;;;;;;4936058;29;20043;-89
2021/12/25 06:09:59;;;;;;;4.35;1.10;;;-3.10;99.90;;;;;;4934875;29;20046;-93
2021/12/25 06:12:25;;;;;;;3.05;0.95;;;-3.10;99.90;;;;;;4918745;29;20058;-96
2021/12/25 06:14:53;;;;;;;3.83;0.90;;;-3.10;99.90;;;;;;4951786;29;20047;-94
2021/12/25 06:17:19;;;;;;;2.25;0.68;;;-3.10;99.90;;;;;;4938267;29;20059;-96
2021/12/25 06:19:44;;;;;;;4.82;1.33;;;-3.10;99.90;;;;;;4932782;29;20076;-94
2021/12/25 06:22:10;;;;;;;2.55;0.80;;;-3.10;99.90;;;;;;4919716;29;20044;-93
2021/12/25 06:24:36;;;;;;;2.10;0.80;;;-3.10;99.90;;;;;;4920934;29;20071;-93
2021/12/25 06:27:02;;;;;;;2.30;0.77;;;-3.10;99.90;;;;;;4917725;29;20075;-94
2021/12/25 06:29:28;;;;;;;3.65;0.80;;;-3.20;99.90;;;;;;4912950;29;20059;-95
2021/12/25 06:31:53;;;;;;;1.75;0.73;;;-3.20;99.90;;;;;;4907607;29;20039;-93
2021/12/25 06:34:20;;;;;;;2.88;0.75;;;-3.10;99.90;;;;;;4921029;29;20119;-92
2021/12/25 06:36:46;;;;;;;4.72;0.73;;;-3.20;99.90;;;;;;4936339;29;20043;-94
2021/12/25 06:39:14;;;;;;;2.60;0.70;;;-3.20;99.90;;;;;;4945625;29;20043;-93
2021/12/25 06:41:41;;;;;;;1.75;0.70;;;-3.20;99.90;;;;;;4942498;29;20087;-93
2021/12/25 06:44:06;;;;;;;1.33;0.60;;;-3.20;99.90;;;;;;4923744;29;20051;-91
2021/12/25 06:46:33;;;;;;;3.10;0.63;;;-3.20;99.90;;;;;;4938264;29;20046;-96
2021/12/25 06:49:01;;;;;;;3.85;1.20;;;-3.30;99.90;;;;;;4907621;29;20560;-93
2021/12/25 06:51:27;;;;;;;2.22;0.80;;;-3.30;99.90;;;;;;4915490;29;20115;-93
2021/12/25 06:53:53;;;;;;;2.15;0.60;;;-3.30;99.90;;;;;;4925767;29;20027;-95
2021/12/25 06:56:18;;;;;;;2.30;0.60;;;-3.30;99.90;;;;;;4939776;29;20046;-93
2021/12/25 06:58:44;;;;;;;2.75;0.63;;;-3.30;99.90;;;;;;4937407;29;20079;-92
2021/12/25 07:01:10;;;;;;;2.53;0.63;;;-3.40;99.90;;;;;;4924279;29;20485;-94
2021/12/25 07:03:36;;;;;;;1.67;0.68;;;-3.40;99.90;;;;;;4940620;29;20043;-94
2021/12/25 07:06:02;;;;;;;3.80;0.60;;;-3.40;99.90;;;;;;4924543;29;20051;-91
2021/12/25 07:08:27;;;;;;;1.75;0.60;;;-3.40;99.90;;;;;;4935605;29;20043;-91
2021/12/25 07:10:53;;;;;;;1.63;0.60;;;-3.40;99.90;;;;;;4923696;29;20086;-93
2021/12/25 07:13:20;;;;;;;2.88;0.50;;;-3.40;99.90;;;;;;4923527;29;20039;-93
2021/12/25 07:15:48;;;;;;;1.83;0.70;;;-3.30;99.90;;;;;;4940961;29;20230;-95
2021/12/25 07:18:14;;;;;;;0.68;0.50;;;-3.30;99.90;;;;;;4924542;29;20505;-88
2021/12/25 07:20:40;;;;;;;1.52;0.77;;;-3.50;99.90;;;;;;4936660;29;20118;-93
2021/12/25 07:23:06;;;;;;;2.05;0.68;;;-3.40;99.90;;;;;;4924468;29;20051;-94
2021/12/25 07:25:32;;;;;;;1.30;0.50;;;-3.50;99.90;;;;;;4922757;29;20043;-90
2021/12/25 07:27:58;;;;;;;0.40;0.40;;;-3.50;99.90;;;;;;4939257;29;20066;-92
2021/12/25 07:30:24;;;;;;;1.17;0.70;;;-3.50;99.90;;;;;;4922561;29;20044;-94
2021/12/25 07:32:49;;;;;;;2.85;0.70;;;-3.50;99.90;;;;;;4919323;29;20194;-92
2021/12/25 07:35:15;;;;;;;0.90;0.50;;;-3.50;99.90;;;;;;4936044;29;20039;-88
2021/12/25 07:37:41;;;;;;;2.20;0.80;;;-3.50;99.90;;;;;;4945621;28;20051;-91
2021/12/25 07:40:09;;;;;;;1.50;0.60;;;-3.50;99.90;;;;;;4933266;29;20051;-89
2021/12/25 07:42:35;;;;;;;1.25;0.57;;;-3.60;99.90;;;;;;4918874;29;20154;-90
2021/12/25 07:45:06;;;;;;;1.70;0.70;;;-3.60;99.90;;;;;;4936815;29;20461;-91
2021/12/25 07:47:34;;;;;;;4.03;0.70;;;-3.60;99.90;;;;;;4936573;29;20385;-91
2021/12/25 07:50:02;;;;;;;1.55;0.50;;;-3.70;99.90;;;;;;4920524;29;20039;-91
2021/12/25 07:52:28;;;;;;;3.20;0.60;;;-3.60;99.90;;;;;;4933804;29;20083;-94
2021/12/25 07:54:54;;;;;;;2.33;0.73;;;-3.60;99.90;;;;;;4937248;29;20047;-90
2021/12/25 07:57:20;;;;;;;1.63;0.70;;;-3.60;99.90;;;;;;4932314;29;20138;-90
2021/12/25 07:59:46;;;;;;;1.27;0.52;;;-3.50;99.90;;;;;;4931975;29;20126;-91
2021/12/25 08:02:11;;;;;;;2.25;0.77;;;-3.60;99.90;;;;;;4936913;29;20054;-89
2021/12/25 08:04:37;;;;;;;1.05;0.63;;;-3.60;99.90;;;;;;4909096;29;20071;-91
2021/12/25 08:07:03;;;;;;;1.90;0.73;;;-3.60;99.90;;;;;;4915624;29;20485;-89
2021/12/25 08:09:30;;;;;;;2.65;0.63;;;-3.60;99.90;;;;;;4900753;29;20108;-90
2021/12/25 08:11:57;;;;;;;1.08;0.70;;;-3.60;99.90;;;;;;4917583;29;20044;-91
2021/12/25 08:14:25;;;;;;;0.85;0.65;;;-3.60;99.90;;;;;;4916722;29;20254;-89
2021/12/25 08:16:56;;;;;;;2.58;0.70;;;-3.60;99.90;;;;;;4901538;29;20143;-91
2021/12/25 08:19:22;;;;;;;1.50;0.52;;;-3.70;99.90;;;;;;4933137;29;20043;-91
2021/12/25 08:21:49;;;;;;;2.65;0.88;;;-3.60;99.90;;;;;;4901866;29;20087;-91
2021/12/25 08:24:16;;;;;;;3.08;0.60;;;-3.60;99.90;;;;;;4901804;29;20039;-89
2021/12/25 08:26:42;;;;;;;2.75;0.60;;;-3.60;99.90;;;;;;4901257;29;20056;-91
2021/12/25 08:29:08;;;;;;;2.90;0.80;;;-3.60;99.90;;;;;;4901523;29;20468;-90
2021/12/25 08:31:33;;;;;;;1.15;0.70;;;-3.60;99.90;;;;;;4901153;29;20127;-90
2021/12/25 08:33:59;;;;;;;2.95;0.95;;;-3.60;99.90;;;;;;4901366;29;20523;-89
2021/12/25 08:36:25;;;;;;;2.83;0.63;;;-3.60;99.90;;;;;;4916002;29;20044;-91
2021/12/25 08:38:50;;;;;;;1.83;1.02;;;-3.60;99.90;;;;;;4916783;29;20560;-93
2021/12/25 08:41:16;;;;;;;1.58;0.70;;;-3.60;99.90;;;;;;4900981;29;20051;-91
2021/12/25 08:43:47;;;;;;;2.38;0.52;;;-3.60;99.90;;;;;;4900728;29;20048;-91
2021/12/25 08:46:18;;;;;;;2.75;0.70;;;-3.60;99.90;;;;;;4917152;29;20052;-93
2021/12/25 08:48:45;;;;;;;2.47;0.80;;;-3.60;99.90;;;;;;4900402;29;20110;-93
2021/12/25 08:51:11;;;;;;;2.35;0.60;;;-3.50;99.90;;;;;;4900867;29;20040;-90
2021/12/25 08:53:36;;;;;;;5.25;0.85;;;-3.60;99.90;;;;;;4916109;29;20054;-90
2021/12/25 08:56:02;;;;;;;2.22;0.70;;;-3.50;99.90;;;;;;4916536;29;20039;-92
2021/12/25 08:58:30;;;;;;;0.85;0.57;;;-3.50;99.90;;;;;;4902708;29;20103;-91
2021/12/25 09:01:01;;;;;;;2.22;0.60;;;-3.50;99.90;;;;;;4919831;29;20086;-91
2021/12/25 09:03:29;;;;;;;1.42;0.75;;;-3.40;99.90;;;;;;4904560;29;20040;-93
2021/12/25 09:06:00;;;;;;;1.88;0.68;;;-3.40;99.90;;;;;;4926063;29;20474;-89
2021/12/25 09:08:26;;;;;;;1.70;0.65;;;-3.30;99.90;;;;;;4936599;29;20063;-88
2021/12/25 09:10:53;;;;;;;4.55;0.75;;;-3.30;99.90;;;;;;4920302;29;20044;-90
2021/12/25 09:13:19;;;;;;;2.33;0.50;;;-3.20;99.90;;;;;;4929010;29;20043;-92
2021/12/25 09:15:44;;;;;;;1.40;0.65;;;-3.20;99.90;;;;;;4917731;29;20099;-93
2021/12/25 09:18:10;;;;;;;2.75;0.80;;;-3.20;99.90;;;;;;4902801;29;20099;-94
2021/12/25 09:20:36;;;;;;;0.55;0.50;;;-3.10;99.90;;;;;;4935549;29;20413;-90
2021/12/25 09:23:02;;;;;;;3.08;0.60;;;-3.10;99.90;;;;;;4935984;29;20126;-92
2021/12/25 09:25:28;;;;;;;1.52;0.60;;;-3.00;99.90;;;;;;4934900;29;20048;-94
2021/12/25 09:27:54;;;;;;;2.75;0.70;;;-3.00;99.90;;;;;;4935319;29;20045;-92
2021/12/25 09:30:21;;;;;;;1.17;0.63;;;-3.00;99.90;;;;;;4931729;29;20039;-92
2021/12/25 09:32:47;;;;;;;2.83;0.70;;;-3.00;99.90;;;;;;4900406;29;20450;-91
2021/12/25 09:35:14;;;;;;;2.35;0.60;;;-3.00;99.90;;;;;;4900264;29;20051;-91
2021/12/25 09:37:40;;;;;;;2.47;0.77;;;-3.00;99.90;;;;;;4899225;29;20520;-91
2021/12/25 09:40:08;;;;;;;2.05;0.65;;;-2.90;99.90;;;;;;4900313;29;20043;-91
2021/12/25 09:42:34;;;;;;;2.97;0.73;;;-2.90;99.90;;;;;;4915815;29;20040;-91
2021/12/25 09:45:00;;;;;;;1.35;0.60;;;-2.90;99.90;;;;;;4900020;29;20151;-93
2021/12/25 09:47:26;;;;;;;3.72;0.70;;;-2.80;99.90;;;;;;4901254;29;20126;-93
2021/12/25 09:49:52;;;;;;;1.75;0.60;;;-2.80;99.90;;;;;;4918854;29;20512;-92
2021/12/25 09:52:19;;;;;;;2.08;0.73;;;-2.70;99.90;;;;;;4934034;29;20138;-91
2021/12/25 09:54:45;;;;;;;2.38;0.60;;;-2.70;99.90;;;;;;4934354;29;20047;-92
2021/12/25 09:57:13;;;;;;;2.78;0.70;;;-2.60;99.90;;;;;;4935011;29;20138;-92
2021/12/25 09:59:38;;;;;;;3.72;1.00;;;-2.60;99.90;;;;;;4918135;29;20284;-92
2021/12/25 10:02:10;;;;;;;3.65;1.10;;;-2.60;99.90;;;;;;4919504;29;20036;-92
2021/12/25 10:04:47;;;;;;;3.47;0.68;;;-2.50;99.90;;;;;;4917819;29;20087;-91
2021/12/25 10:07:27;;;;;;;3.83;0.68;;;-2.50;99.90;;;;;;4918996;29;20133;-92
2021/12/25 10:10:13;;;;;;;2.47;0.70;;;-2.40;99.90;;;;;;4918966;29;20056;-91
2021/12/25 10:12:43;;;;;;;3.30;0.98;;;-2.40;99.90;;;;;;4918943;29;20047;-93
2021/12/25 10:15:13;;;;;;;4.47;0.95;;;-2.40;99.90;;;;;;4938806;29;20130;-93
2021/12/25 10:17:55;;;;;;;3.15;2.40;;;-2.40;99.90;;;;;;4935903;29;20048;-93
2021/12/25 10:20:29;;;;;;;4.03;0.90;;;-2.30;99.90;;;;;;4935130;29;20102;-93
2021/12/25 10:23:14;;;;;;;4.55;0.82;;;-2.30;99.90;;;;;;4903445;29;20048;-94
2021/12/25 10:25:52;;;;;;;3.78;0.93;;;-2.30;99.90;;;;;;4902550;29;20094;-92
2021/12/25 10:28:21;;;;;;;4.00;0.75;;;-2.30;99.90;;;;;;4903322;29;20050;-91
2021/12/25 10:30:59;;;;;;;2.38;0.70;;;-2.20;99.90;;;;;;4903669;29;20126;-92
2021/12/25 10:33:34;;;;;;;5.18;1.00;;;-2.20;99.90;;;;;;4908843;29;20098;-90
2021/12/25 10:36:06;;;;;;;4.40;1.42;;;-2.20;99.90;;;;;;4921810;29;20457;-91
2021/12/25 10:38:32;;;;;;;2.38;0.73;;;-2.20;99.90;;;;;;4937027;29;20122;-93
2021/12/25 10:41:17;;;;;;;2.85;0.85;;;-2.20;99.90;;;;;;4937889;29;20533;-90
2021/12/25 10:43:43;;;;;;;2.45;0.80;;;-2.10;99.90;;;;;;4937176;29;20142;-90
2021/12/25 10:46:10;;;;;;;2.40;1.10;;;-2.10;99.90;;;;;;4937604;29;20126;-90
2021/12/25 10:48:35;;;;;;;5.53;0.90;;;-2.10;99.90;;;;;;4937086;29;20078;-91
2021/12/25 10:51:01;;;;;;;1.65;0.70;;;-2.10;99.90;;;;;;4921453;29;20039;-92
2021/12/25 10:53:31;;;;;;;4.40;0.80;;;-2.10;99.90;;;;;;4937173;29;20054;-93
2021/12/25 10:56:13;;;;;;;1.50;0.77;;;-2.00;99.90;;;;;;4922277;29;20124;-92
2021/12/25 10:58:40;;;;;;;2.25;0.88;;;-2.00;99.90;;;;;;4920815;29;20051;-91
2021/12/25 11:01:08;;;;;;;2.78;0.75;;;-2.00;99.90;;;;;;4921344;29;20039;-89
2021/12/25 11:03:40;;;;;;;2.25;0.80;;;-2.00;99.90;;;;;;4936160;29;20047;-91
2021/12/25 11:06:13;;;;;;;3.85;1.02;;;-1.90;99.90;;;;;;4936934;29;20047;-91
2021/12/25 11:08:40;;;;;;;2.28;0.85;;;-1.90;99.90;;;;;;4933574;29;20054;-90
2021/12/25 11:11:10;;;;;;;2.90;1.10;;;-1.80;99.90;;;;;;4934352;29;20084;-91
2021/12/25 11:13:40;;;;;;;2.17;0.70;;;-1.80;99.90;;;;;;4917051;29;20040;-92
2021/12/25 11:16:08;;;;;;;3.63;0.82;;;-1.80;99.90;;;;;;4934067;29;20043;-90
2021/12/25 11:19:10;;;;;;;3.55;0.90;;;-1.80;99.90;;;;;;4901290;29;20054;-93
2021/12/25 11:21:45;;;;;;;4.22;0.93;;;-1.80;99.90;;;;;;4901856;29;20123;-95
2021/12/25 11:24:18;;;;;;;2.15;1.00;;;-1.70;99.90;;;;;;4909659;29;20039;-91
2021/12/25 11:26:46;;;;;;;1.88;0.80;;;-1.70;99.90;;;;;;4936529;29;20520;-91
2021/12/25 11:29:14;;;;;;;3.63;0.82;;;-1.60;99.90;;;;;;4937018;29;20059;-89
2021/12/25 11:31:41;;;;;;;3.63;0.82;;;-1.60;99.90;;;;;;4920692;29;20447;-92
2021/12/25 11:34:07;;;;;;;3.80;1.00;;;-1.60;99.90;;;;;;4936304;29;20047;-91
2021/12/25 11:36:38;;;;;;;2.40;0.80;;;-1.60;99.90;;;;;;4936496;29;20105;-93
2021/12/25 11:39:05;;;;;;;3.92;0.98;;;-1.50;99.90;;;;;;4936877;29;20366;-89
2021/12/25 11:41:32;;;;;;;1.75;0.73;;;-1.50;99.90;;;;;;4936689;29;20122;-91
2021/12/25 11:43:58;;;;;;;3.28;0.88;;;-1.50;99.90;;;;;;4921580;29;20050;-90
2021/12/25 11:46:37;;;;;;;2.55;1.00;;;-1.50;99.90;;;;;;4935960;29;20047;-92
2021/12/25 11:49:09;;;;;;;2.85;1.10;;;-1.40;99.90;;;;;;4936898;29;20057;-94
2021/12/25 11:51:35;;;;;;;1.17;0.70;;;-1.40;99.90;;;;;;4935391;29;20043;-93
2021/12/25 11:56:47;;;;;;;2.30;0.80;;;-1.30;99.90;;;;;;4933283;29;20512;-92
2021/12/25 11:59:17;;;;;;;4.43;1.15;;;-1.30;99.90;;;;;;4918330;29;20055;-91
2021/12/25 12:01:51;;;;;;;2.38;0.80;;;-1.30;99.90;;;;;;4900838;29;20186;-93
2021/12/25 12:04:21;;;;;;;1.83;0.98;;;-1.20;99.90;;;;;;4916823;29;20090;-96
2021/12/25 12:06:47;;;;;;;3.45;1.02;;;-1.30;99.90;;;;;;4917814;29;20094;-93
2021/12/25 12:09:13;;;;;;;3.15;1.08;;;-1.20;99.90;;;;;;4923250;29;20481;-91
2021/12/25 12:11:40;;;;;;;2.95;1.00;;;-1.20;99.90;;;;;;4934946;29;20546;-90
2021/12/25 12:14:17;;;;;;;4.30;1.00;;;-1.20;99.90;;;;;;4934315;28;20035;-90
2021/12/25 12:16:55;;;;;;;4.03;1.02;;;-1.20;99.90;;;;;;4945018;28;20090;-89
2021/12/25 12:19:29;;;;;;;4.47;1.02;;;-1.20;99.90;;;;;;4940979;28;20039;-89
2021/12/25 12:21:55;;;;;;;3.30;1.00;;;-1.20;99.90;;;;;;4941663;28;20046;-91
2021/12/25 12:25:18;;;;;;;2.97;0.80;;;-1.20;99.90;;;;;;4921578;28;20150;-94
2021/12/25 12:27:29;;;;;;;;;;;-1.20;99.90;;;;;;4938967;28;20054;-90
2021/12/25 12:29:54;;;;;;;3.05;1.02;;;-1.20;99.90;;;;;;4919921;28;19922;-91
2021/12/25 12:32:20;;;;;;;1.98;0.90;;;-1.20;99.90;;;;;;4921048;29;20058;-93
2021/12/25 12:34:51;;;;;;;2.97;0.90;;;-1.10;99.90;;;;;;4937927;28;20046;-94
2021/12/25 12:37:16;;;;;;;5.18;0.98;;;-1.20;99.90;;;;;;4943220;28;20198;-92
2021/12/25 12:39:55;;;;;;;3.22;0.82;;;-1.10;99.90;;;;;;4948840;28;20408;-92
2021/12/25 12:42:29;;;;;;;4.28;1.10;;;-1.10;99.90;;;;;;4927538;28;20080;-95
2021/12/25 12:45:19;;;;;;;1.95;0.80;;;-1.10;99.90;;;;;;4943680;29;20047;-90
2021/12/25 12:48:19;;;;;;;4.65;1.10;;;-1.10;99.90;;;;;;4948046;28;20054;-92
2021/12/25 12:50:52;;;;;;;3.45;1.00;;;-1.10;99.90;;;;;;4944202;29;20043;-93
2021/12/25 12:53:19;;;;;;;4.10;1.55;;;-1.10;99.90;;;;;;4917432;28;20051;-88
2021/12/25 12:55:48;;;;;;;4.88;1.00;;;-1.10;99.90;;;;;;4939050;28;20545;-90
2021/12/25 12:58:16;;;;;;;2.35;0.90;;;-1.10;99.90;;;;;;4919976;28;20465;-93
2021/12/25 13:00:47;;;;;;;3.72;1.05;;;-1.10;99.90;;;;;;4925636;28;20054;-90
2021/12/25 13:03:13;;;;;;;;;;;-1.00;99.90;;;;;;4952130;28;20042;-95
2021/12/25 13:05:43;;;;;;;3.17;1.05;;;-1.10;99.90;;;;;;4937337;29;20284;-92
2021/12/25 13:08:13;;;;;;;4.78;1.23;;;-1.00;99.90;;;;;;4936858;28;20051;-92
2021/12/25 13:10:51;;;;;;;2.30;0.82;;;-1.00;99.90;;;;;;4951196;28;20133;-92
2021/12/25 13:13:28;;;;;;;2.15;1.00;;;-1.00;99.90;;;;;;4937581;28;20051;-91
2021/12/25 13:15:59;;;;;;;4.47;1.10;;;-1.00;99.90;;;;;;4914672;28;20169;-92
2021/12/25 13:18:28;;;;;;;5.75;0.95;;;-1.00;99.90;;;;;;4949209;28;20045;-93
2021/12/25 13:20:54;;;;;;;4.80;1.00;;;-1.00;99.90;;;;;;4944701;28;20047;-91
2021/12/25 13:23:35;;;;;;;4.72;1.05;;;-0.90;99.90;;;;;;4939366;28;20046;-92
2021/12/25 13:26:05;;;;;;;2.80;1.00;;;-0.90;99.90;;;;;;4961732;28;20050;-91
2021/12/25 13:28:42;;;;;;;4.95;0.93;;;-0.90;99.90;;;;;;4956761;28;20038;-92
2021/12/25 13:31:10;;;;;;;3.53;1.30;;;-0.90;99.90;;;;;;4951941;28;20565;-89
2021/12/25 13:33:45;;;;;;;3.20;0.93;;;-0.90;99.90;;;;;;4913008;28;20051;-89
2021/12/25 13:36:13;;;;;;;2.97;0.93;;;-1.00;99.90;;;;;;4942153;28;20163;-91
2021/12/25 13:38:52;;;;;;;2.40;0.93;;;-1.00;99.90;;;;;;4935826;28;20138;-91
2021/12/25 13:41:31;;;;;;;5.03;1.15;;;-1.00;99.90;;;;;;4926834;28;20321;-89
2021/12/25 13:44:15;;;;;;;3.03;1.25;;;-1.00;99.90;;;;;;4944513;28;20053;-93
2021/12/25 13:46:50;;;;;;;1.92;0.82;;;-1.00;99.90;;;;;;4947023;28;20062;-90
2021/12/25 13:49:41;;;;;;;3.17;1.05;;;-1.00;99.90;;;;;;4939252;28;20051;-91
2021/12/25 13:52:21;;;;;;;4.15;0.90;;;-1.00;99.90;;;;;;4922705;28;20046;-91
2021/12/25 13:54:55;;;;;;;3.60;1.00;;;-1.10;99.90;;;;;;4924545;28;20051;-88
2021/12/25 13:57:23;;;;;;;1.60;0.80;;;-1.10;99.90;;;;;;4937205;28;20059;-94
2021/12/25 13:59:51;;;;;;;4.00;1.20;;;-1.10;99.90;;;;;;4945179;29;20051;-93
2021/12/25 14:02:17;;;;;;;4.43;1.10;;;-1.10;99.90;;;;;;4951522;28;20451;-90
2021/12/25 14:04:45;;;;;;;2.25;1.23;;;-1.10;99.90;;;;;;4926948;28;20139;-89
2021/12/25 14:07:13;;;;;;;3.05;1.20;;;-1.10;99.90;;;;;;4936055;28;20150;-92
2021/12/25 14:09:39;;;;;;;3.17;1.00;;;-1.10;99.90;;;;;;4938703;29;20051;-93
2021/12/25 14:12:05;;;;;;;3.83;1.00;;;-1.20;99.90;;;;;;4943200;28;20039;-88
2021/12/25 14:14:31;;;;;;;4.13;1.00;;;-1.20;99.90;;;;;;4919487;28;20044;-92
2021/12/25 14:16:59;;;;;;;3.60;1.30;;;-1.20;99.90;;;;;;4946188;28;20058;-91